createdAt,value
2018-03-22T00:00:29.081Z,0.00
2018-03-22T00:01:29.047Z,0.00
2018-03-22T00:02:28.958Z,0.00
2018-03-22T00:03:28.914Z,0.00
2018-03-22T00:04:28.858Z,0.00
2018-03-22T00:05:28.798Z,0.00
2018-03-22T00:06:28.785Z,0.00
2018-03-22T00:07:28.701Z,0.00
2018-03-22T00:08:28.633Z,0.00
2018-03-22T00:09:28.580Z,0.00
2018-03-22T00:10:28.529Z,0.00
2018-03-22T00:11:28.504Z,0.00
2018-03-22T00:12:28.422Z,0.00
2018-03-22T00:13:28.375Z,0.00
2018-03-22T00:14:28.316Z,0.00
2018-03-22T00:15:28.255Z,0.00
2018-03-22T00:16:28.241Z,0.00
2018-03-22T00:17:28.151Z,0.00
2018-03-22T00:18:28.113Z,0.00
2018-03-22T00:19:28.043Z,0.00
2018-03-22T00:20:27.990Z,0.00
2018-03-22T00:21:27.968Z,0.00
2018-03-22T00:22:27.880Z,0.00
2018-03-22T00:23:27.827Z,0.00
2018-03-22T00:24:27.772Z,0.00
2018-03-22T00:25:27.739Z,0.00
2018-03-22T00:26:27.711Z,0.00
2018-03-22T00:27:27.613Z,0.00
2018-03-22T00:28:27.555Z,0.00
2018-03-22T00:29:27.499Z,0.00
2018-03-22T00:30:27.455Z,0.00
2018-03-22T00:31:27.433Z,0.00
2018-03-22T00:32:27.341Z,0.00
2018-03-22T00:33:27.285Z,0.00
2018-03-22T00:34:27.234Z,0.00
2018-03-22T00:35:27.178Z,0.00
2018-03-22T00:36:27.159Z,0.00
2018-03-22T00:37:27.085Z,0.00
2018-03-22T00:38:27.019Z,0.00
2018-03-22T00:39:26.968Z,0.00
2018-03-22T00:40:26.909Z,0.00
2018-03-22T00:41:26.896Z,0.00
2018-03-22T00:42:26.798Z,0.00
2018-03-22T00:43:26.752Z,0.00
2018-03-22T00:44:26.687Z,0.00
2018-03-22T00:45:26.640Z,0.00
2018-03-22T00:46:26.612Z,0.00
2018-03-22T00:47:26.534Z,0.00
2018-03-22T00:48:26.472Z,0.00
2018-03-22T00:49:26.420Z,0.00
2018-03-22T00:50:26.367Z,0.00
2018-03-22T00:51:26.345Z,0.00
2018-03-22T00:52:26.259Z,0.00
2018-03-22T00:53:26.206Z,0.00
2018-03-22T00:54:26.150Z,0.00
2018-03-22T00:55:26.096Z,0.00
2018-03-22T00:56:26.079Z,0.00
2018-03-22T00:57:25.995Z,0.00
2018-03-22T00:58:25.935Z,0.00
2018-03-22T00:59:25.885Z,0.00
2018-03-22T01:00:25.827Z,0.00
2018-03-22T01:01:25.806Z,0.00
2018-03-22T01:02:25.719Z,0.00
2018-03-22T01:03:25.667Z,0.00
2018-03-22T01:04:25.706Z,0.00
2018-03-22T01:05:25.558Z,0.00
2018-03-22T01:06:25.534Z,0.00
2018-03-22T01:07:25.447Z,0.00
2018-03-22T01:08:25.393Z,0.00
2018-03-22T01:09:25.355Z,0.00
2018-03-22T01:10:25.297Z,0.00
2018-03-22T01:11:25.276Z,0.00
2018-03-22T01:12:25.186Z,0.00
2018-03-22T01:13:25.124Z,0.00
2018-03-22T01:14:25.074Z,0.00
2018-03-22T01:15:25.023Z,0.00
2018-03-22T01:16:25.011Z,0.00
2018-03-22T01:17:24.907Z,0.00
2018-03-22T01:18:24.858Z,0.00
2018-03-22T01:19:24.809Z,0.00
2018-03-22T01:20:24.750Z,0.00
2018-03-22T01:21:24.726Z,0.00
2018-03-22T01:22:24.637Z,0.00
2018-03-22T01:23:24.595Z,0.00
2018-03-22T01:24:24.531Z,0.00
2018-03-22T01:25:24.483Z,0.00
2018-03-22T01:26:24.453Z,0.00
2018-03-22T01:27:24.365Z,0.00
2018-03-22T01:28:24.306Z,0.00
2018-03-22T01:29:24.260Z,0.00
2018-03-22T01:30:24.209Z,0.00
2018-03-22T01:31:24.189Z,0.00
2018-03-22T01:32:24.097Z,0.00
2018-03-22T01:33:24.041Z,0.00
2018-03-22T01:34:23.985Z,0.00
2018-03-22T01:35:23.930Z,0.00
2018-03-22T01:36:23.920Z,0.00
2018-03-22T01:37:23.824Z,0.00
2018-03-22T01:38:23.771Z,0.00
2018-03-22T01:39:23.716Z,0.00
2018-03-22T01:40:23.661Z,0.00
2018-03-22T01:41:23.641Z,0.00
2018-03-22T01:42:23.564Z,0.00
2018-03-22T01:43:23.500Z,0.00
2018-03-22T01:44:23.447Z,0.00
2018-03-22T01:45:23.387Z,0.00
2018-03-22T01:46:23.367Z,0.00
2018-03-22T01:47:23.284Z,0.00
2018-03-22T01:48:23.236Z,0.00
2018-03-22T01:49:23.176Z,0.00
2018-03-22T01:50:23.123Z,0.00
2018-03-22T01:51:23.162Z,0.00
2018-03-22T01:52:23.008Z,0.00
2018-03-22T01:53:22.953Z,0.00
2018-03-22T01:54:22.899Z,0.00
2018-03-22T01:55:22.847Z,0.00
2018-03-22T01:56:22.826Z,0.00
2018-03-22T01:57:22.743Z,0.00
2018-03-22T01:58:22.684Z,0.00
2018-03-22T01:59:22.638Z,0.00
2018-03-22T02:00:22.578Z,0.00
2018-03-22T02:01:22.557Z,0.00
2018-03-22T02:02:22.464Z,0.00
2018-03-22T02:03:22.415Z,0.00
2018-03-22T02:04:22.365Z,0.00
2018-03-22T02:05:22.311Z,0.00
2018-03-22T02:06:22.285Z,0.00
2018-03-22T02:07:22.206Z,0.00
2018-03-22T02:08:22.142Z,0.00
2018-03-22T02:09:22.099Z,0.00
2018-03-22T02:10:22.146Z,0.00
2018-03-22T02:11:22.014Z,0.00
2018-03-22T02:12:21.929Z,0.00
2018-03-22T02:13:21.868Z,0.00
2018-03-22T02:14:21.809Z,0.00
2018-03-22T02:15:21.775Z,0.00
2018-03-22T02:16:21.746Z,0.00
2018-03-22T02:17:21.649Z,0.00
2018-03-22T02:18:21.601Z,0.00
2018-03-22T02:19:21.546Z,0.00
2018-03-22T02:20:21.487Z,0.00
2018-03-22T02:21:21.474Z,0.00
2018-03-22T02:22:21.377Z,0.00
2018-03-22T02:23:21.330Z,0.00
2018-03-22T02:24:21.270Z,0.00
2018-03-22T02:25:21.216Z,0.00
2018-03-22T02:26:21.197Z,0.00
2018-03-22T02:27:21.119Z,0.00
2018-03-22T02:28:21.054Z,0.00
2018-03-22T02:29:21.000Z,0.00
2018-03-22T02:30:20.943Z,0.00
2018-03-22T02:31:20.974Z,0.00
2018-03-22T02:32:20.839Z,0.00
2018-03-22T02:33:20.776Z,0.00
2018-03-22T02:34:20.745Z,0.00
2018-03-22T02:35:20.671Z,0.00
2018-03-22T02:36:20.649Z,0.00
2018-03-22T02:37:20.560Z,0.00
2018-03-22T02:38:20.504Z,0.00
2018-03-22T02:39:20.454Z,0.00
2018-03-22T02:40:20.400Z,0.00
2018-03-22T02:41:20.374Z,0.00
2018-03-22T02:42:20.291Z,0.00
2018-03-22T02:43:20.237Z,0.00
2018-03-22T02:44:20.175Z,0.00
2018-03-22T02:45:20.134Z,0.00
2018-03-22T02:46:20.114Z,0.00
2018-03-22T02:47:20.024Z,0.00
2018-03-22T02:48:19.971Z,0.00
2018-03-22T02:49:19.910Z,0.00
2018-03-22T02:50:19.851Z,0.00
2018-03-22T02:51:19.836Z,0.00
2018-03-22T02:52:19.746Z,0.00
2018-03-22T02:53:19.689Z,0.00
2018-03-22T02:54:19.653Z,0.00
2018-03-22T02:55:19.587Z,0.00
2018-03-22T02:56:19.562Z,0.00
2018-03-22T02:57:19.482Z,0.00
2018-03-22T02:58:19.429Z,0.00
2018-03-22T02:59:19.378Z,0.00
2018-03-22T03:00:19.309Z,0.00
2018-03-22T03:01:19.295Z,0.00
2018-03-22T03:02:19.201Z,0.00
2018-03-22T03:03:19.167Z,0.00
2018-03-22T03:04:19.104Z,0.00
2018-03-22T03:05:19.036Z,0.00
2018-03-22T03:06:19.021Z,0.00
2018-03-22T03:07:18.928Z,0.00
2018-03-22T03:08:18.884Z,0.00
2018-03-22T03:09:18.835Z,0.00
2018-03-22T03:10:18.763Z,0.00
2018-03-22T03:11:18.765Z,0.00
2018-03-22T03:12:18.647Z,0.00
2018-03-22T03:13:18.601Z,0.00
2018-03-22T03:14:18.551Z,0.00
2018-03-22T03:15:18.482Z,0.00
2018-03-22T03:16:18.485Z,0.00
2018-03-22T03:17:18.381Z,0.00
2018-03-22T03:18:18.336Z,0.00
2018-03-22T03:19:18.282Z,0.00
2018-03-22T03:20:18.216Z,0.00
2018-03-22T03:21:18.197Z,0.00
2018-03-22T03:22:18.108Z,0.00
2018-03-22T03:23:18.052Z,0.00
2018-03-22T03:24:18.000Z,0.00
2018-03-22T03:25:17.961Z,0.00
2018-03-22T03:26:17.928Z,0.00
2018-03-22T03:27:17.833Z,0.00
2018-03-22T03:28:17.782Z,0.00
2018-03-22T03:29:17.727Z,0.00
2018-03-22T03:30:17.739Z,0.00
2018-03-22T03:31:17.649Z,0.00
2018-03-22T03:32:17.565Z,0.00
2018-03-22T03:33:17.510Z,0.00
2018-03-22T03:34:17.470Z,0.00
2018-03-22T03:35:17.406Z,0.00
2018-03-22T03:36:17.392Z,0.00
2018-03-22T03:37:17.290Z,0.00
2018-03-22T03:38:17.234Z,0.00
2018-03-22T03:39:17.179Z,0.00
2018-03-22T03:40:17.142Z,0.00
2018-03-22T03:41:17.175Z,0.00
2018-03-22T03:42:17.011Z,0.00
2018-03-22T03:43:16.971Z,0.00
2018-03-22T03:44:16.911Z,0.00
2018-03-22T03:45:16.846Z,0.00
2018-03-22T03:46:16.834Z,0.00
2018-03-22T03:47:16.741Z,0.00
2018-03-22T03:48:16.715Z,0.00
2018-03-22T03:49:16.631Z,0.00
2018-03-22T03:50:16.574Z,0.00
2018-03-22T03:51:16.566Z,0.00
2018-03-22T03:52:16.481Z,0.00
2018-03-22T03:53:16.408Z,0.00
2018-03-22T03:54:16.359Z,0.00
2018-03-22T03:55:16.314Z,0.00
2018-03-22T03:56:16.288Z,0.00
2018-03-22T03:57:16.199Z,0.00
2018-03-22T03:58:16.137Z,0.00
2018-03-22T03:59:16.075Z,0.00
2018-03-22T04:00:16.034Z,0.00
2018-03-22T04:01:16.032Z,0.00
2018-03-22T04:02:15.931Z,0.00
2018-03-22T04:03:15.874Z,0.00
2018-03-22T04:04:15.810Z,0.00
2018-03-22T04:05:15.754Z,0.00
2018-03-22T04:06:15.736Z,0.00
2018-03-22T04:07:15.647Z,0.00
2018-03-22T04:08:15.599Z,0.00
2018-03-22T04:09:15.537Z,0.00
2018-03-22T04:10:15.477Z,0.00
2018-03-22T04:11:15.463Z,0.00
2018-03-22T04:12:15.402Z,0.00
2018-03-22T04:13:15.313Z,0.00
2018-03-22T04:14:15.279Z,0.00
2018-03-22T04:15:15.215Z,0.00
2018-03-22T04:16:15.181Z,0.00
2018-03-22T04:17:15.111Z,0.00
2018-03-22T04:18:15.054Z,0.00
2018-03-22T04:19:15.017Z,0.00
2018-03-22T04:20:14.930Z,0.00
2018-03-22T04:21:14.914Z,0.00
2018-03-22T04:22:14.827Z,0.00
2018-03-22T04:23:14.767Z,0.00
2018-03-22T04:24:14.721Z,0.00
2018-03-22T04:25:14.661Z,0.00
2018-03-22T04:26:14.638Z,0.00
2018-03-22T04:27:14.557Z,0.00
2018-03-22T04:28:14.496Z,0.00
2018-03-22T04:29:14.450Z,0.00
2018-03-22T04:30:14.386Z,0.00
2018-03-22T04:31:14.369Z,0.00
2018-03-22T04:32:14.276Z,0.00
2018-03-22T04:33:14.223Z,0.00
2018-03-22T04:34:14.166Z,0.00
2018-03-22T04:35:14.110Z,0.00
2018-03-22T04:36:14.093Z,0.00
2018-03-22T04:37:14.002Z,0.00
2018-03-22T04:38:13.950Z,0.00
2018-03-22T04:39:13.906Z,0.00
2018-03-22T04:40:13.839Z,0.00
2018-03-22T04:41:13.818Z,0.00
2018-03-22T04:42:13.734Z,0.00
2018-03-22T04:43:13.683Z,0.00
2018-03-22T04:44:13.620Z,4.00
2018-03-22T04:45:13.564Z,0.00
2018-03-22T04:46:13.547Z,0.00
2018-03-22T04:47:13.460Z,4.00
2018-03-22T04:48:13.402Z,0.00
2018-03-22T04:49:13.344Z,4.00
2018-03-22T04:50:13.291Z,4.00
2018-03-22T04:51:13.264Z,4.00
2018-03-22T04:52:13.203Z,4.00
2018-03-22T04:53:13.123Z,8.00
2018-03-22T04:54:13.071Z,8.00
2018-03-22T04:55:13.017Z,8.00
2018-03-22T04:56:13.001Z,16.00
2018-03-22T04:57:12.904Z,16.00
2018-03-22T04:58:12.874Z,20.00
2018-03-22T04:59:12.834Z,24.00
2018-03-22T05:00:12.736Z,28.00
2018-03-22T05:01:12.718Z,36.00
2018-03-22T05:02:12.633Z,40.00
2018-03-22T05:03:12.583Z,48.00
2018-03-22T05:04:12.524Z,60.00
2018-03-22T05:05:12.470Z,68.00
2018-03-22T05:06:12.448Z,76.00
2018-03-22T05:07:12.359Z,88.00
2018-03-22T05:08:12.307Z,104.00
2018-03-22T05:09:12.246Z,120.00
2018-03-22T05:10:12.193Z,136.00
2018-03-22T05:11:12.171Z,156.00
2018-03-22T05:12:12.089Z,176.00
2018-03-22T05:13:12.027Z,204.00
2018-03-22T05:14:11.980Z,224.00
2018-03-22T05:15:11.932Z,252.00
2018-03-22T05:16:11.899Z,280.00
2018-03-22T05:17:11.809Z,312.00
2018-03-22T05:18:11.761Z,344.00
2018-03-22T05:19:11.703Z,376.00
2018-03-22T05:20:11.644Z,412.00
2018-03-22T05:21:11.630Z,452.00
2018-03-22T05:22:11.536Z,492.00
2018-03-22T05:23:11.483Z,528.00
2018-03-22T05:24:11.428Z,572.00
2018-03-22T05:25:11.381Z,612.00
2018-03-22T05:26:11.356Z,656.00
2018-03-22T05:27:11.263Z,704.00
2018-03-22T05:28:11.204Z,748.00
2018-03-22T05:29:11.153Z,792.00
2018-03-22T05:30:11.104Z,832.00
2018-03-22T05:31:11.676Z,888.00
2018-03-22T05:32:10.991Z,948.00
2018-03-22T05:34:42.974Z,1104.00
2018-03-22T05:35:42.889Z,1168.00
2018-03-22T05:36:42.875Z,1224.00
2018-03-22T05:37:42.779Z,1276.00
2018-03-22T05:38:42.734Z,1332.00
2018-03-22T05:39:42.668Z,1384.00
2018-03-22T05:40:42.613Z,1444.00
2018-03-22T05:41:42.593Z,1500.00
2018-03-22T05:42:42.508Z,1568.00
2018-03-22T05:43:42.448Z,1644.00
2018-03-22T05:44:42.394Z,1708.00
2018-03-22T05:45:42.334Z,1780.00
2018-03-22T05:46:42.321Z,1844.00
2018-03-22T05:47:42.227Z,1896.00
2018-03-22T05:48:42.178Z,1952.00
2018-03-22T05:49:42.124Z,2012.00
2018-03-22T05:50:42.073Z,2072.00
2018-03-22T05:51:42.046Z,2140.00
2018-03-22T05:52:41.973Z,2212.00
2018-03-22T05:53:41.901Z,2284.00
2018-03-22T05:54:41.848Z,2356.00
2018-03-22T05:55:41.793Z,2432.00
2018-03-22T05:56:41.776Z,2492.00
2018-03-22T05:57:41.683Z,2568.00
2018-03-22T05:58:41.634Z,2628.00
2018-03-22T05:59:41.577Z,2696.00
2018-03-22T06:00:41.520Z,2812.00
2018-03-22T06:01:41.465Z,2920.00
2018-03-22T06:02:41.412Z,3068.00
2018-03-22T06:03:41.393Z,3196.00
2018-03-22T06:04:41.315Z,3288.00
2018-03-22T06:05:41.251Z,3400.00
2018-03-22T06:06:41.192Z,3500.00
2018-03-22T06:07:41.158Z,3564.00
2018-03-22T06:08:41.090Z,3676.00
2018-03-22T06:09:41.028Z,3796.00
2018-03-22T06:10:40.978Z,3944.00
2018-03-22T06:11:40.921Z,4032.00
2018-03-22T06:12:40.906Z,4124.00
2018-03-22T06:13:40.814Z,4224.00
2018-03-22T06:14:40.767Z,4372.00
2018-03-22T06:15:40.704Z,4664.00
2018-03-22T06:16:40.652Z,4988.00
2018-03-22T06:17:40.594Z,5380.00
2018-03-22T06:18:40.543Z,5548.00
2018-03-22T06:19:40.496Z,5676.00
2018-03-22T06:20:40.433Z,5632.00
2018-03-22T06:21:40.380Z,5620.00
2018-03-22T06:22:40.328Z,5736.00
2018-03-22T06:23:40.312Z,5976.00
2018-03-22T06:24:40.217Z,6016.00
2018-03-22T06:25:40.167Z,6128.00
2018-03-22T06:26:40.108Z,6392.00
2018-03-22T06:27:40.058Z,6400.00
2018-03-22T06:28:40.016Z,6236.00
2018-03-22T06:29:40.043Z,6500.00
2018-03-22T06:30:39.910Z,6472.00
2018-03-22T06:31:39.843Z,6344.00
2018-03-22T06:32:39.807Z,6836.00
2018-03-22T06:33:39.751Z,6928.00
2018-03-22T06:34:39.694Z,7176.00
2018-03-22T06:35:39.629Z,7284.00
2018-03-22T06:36:39.605Z,7236.00
2018-03-22T06:37:40.048Z,7228.00
2018-03-22T06:38:39.470Z,7196.00
2018-03-22T06:39:39.428Z,7576.00
2018-03-22T06:40:39.392Z,7888.00
2018-03-22T06:41:39.317Z,8120.00
2018-03-22T06:42:39.263Z,8384.00
2018-03-22T06:43:39.203Z,8612.00
2018-03-22T06:44:39.186Z,8792.00
2018-03-22T06:45:39.152Z,8788.00
2018-03-22T06:46:40.060Z,8348.00
2018-03-22T06:47:39.044Z,8688.00
2018-03-22T06:48:38.948Z,8916.00
2018-03-22T06:49:38.892Z,9240.00
2018-03-22T06:50:38.848Z,9292.00
2018-03-22T06:51:38.785Z,9488.00
2018-03-22T06:52:38.740Z,9604.00
2018-03-22T06:53:38.690Z,9624.00
2018-03-22T06:54:38.649Z,9688.00
2018-03-22T06:55:38.682Z,9808.00
2018-03-22T06:56:38.529Z,9712.00
2018-03-22T06:57:38.511Z,9516.00
2018-03-22T06:58:38.430Z,9808.00
2018-03-22T06:59:38.444Z,9956.00
2018-03-22T07:00:53.069Z,10100.00
2018-03-22T07:01:38.318Z,10584.00
2018-03-22T07:02:38.260Z,10616.00
2018-03-22T07:03:38.252Z,10664.00
2018-03-22T07:04:38.133Z,10600.00
2018-03-22T07:07:10.238Z,10632.00
2018-03-22T07:08:10.041Z,10772.00
2018-03-22T07:09:09.988Z,11016.00
2018-03-22T07:10:09.944Z,11384.00
2018-03-22T07:11:09.894Z,11312.00
2018-03-22T07:12:09.907Z,11080.00
2018-03-22T07:13:09.816Z,10616.00
2018-03-22T07:14:09.728Z,10720.00
2018-03-22T07:15:09.692Z,10952.00
2018-03-22T07:16:09.645Z,11080.00
2018-03-22T07:17:09.626Z,11392.00
2018-03-22T07:18:09.544Z,11180.00
2018-03-22T07:19:09.568Z,10896.00
2018-03-22T07:20:12.179Z,10496.00
2018-03-22T07:21:09.476Z,10684.00
2018-03-22T07:22:09.319Z,10796.00
2018-03-22T07:23:09.276Z,10524.00
2018-03-22T07:24:09.294Z,10224.00
2018-03-22T07:25:09.348Z,9892.00
2018-03-22T07:26:09.132Z,9976.00
2018-03-22T07:27:09.111Z,10312.00
2018-03-22T07:28:09.099Z,10556.00
2018-03-22T07:29:08.998Z,10352.00
2018-03-22T07:30:08.953Z,10492.00
2018-03-22T07:31:08.981Z,10552.00
2018-03-22T07:32:08.825Z,10824.00
2018-03-22T07:33:08.817Z,10136.00
2018-03-22T07:34:08.722Z,10376.00
2018-03-22T07:35:08.717Z,10512.00
2018-03-22T07:36:08.752Z,10584.00
2018-03-22T07:37:08.618Z,10676.00
2018-03-22T07:38:08.558Z,10896.00
2018-03-22T07:39:08.476Z,11256.00
2018-03-22T07:40:08.455Z,11668.00
2018-03-22T07:41:08.446Z,11936.00
2018-03-22T07:42:08.369Z,11980.00
2018-03-22T07:43:08.356Z,12348.00
2018-03-22T07:44:08.260Z,12232.00
2018-03-22T07:45:08.178Z,11724.00
2018-03-22T07:46:08.150Z,11340.00
2018-03-22T07:47:08.093Z,11956.00
2018-03-22T07:48:08.023Z,12164.00
2018-03-22T07:49:07.982Z,12324.00
2018-03-22T07:50:07.974Z,12388.00
2018-03-22T07:51:07.918Z,12332.00
2018-03-22T07:52:07.862Z,12416.00
2018-03-22T07:53:07.819Z,12804.00
2018-03-22T07:54:07.854Z,12660.00
2018-03-22T07:55:07.707Z,12256.00
2018-03-22T07:56:07.645Z,12064.00
2018-03-22T07:57:07.591Z,11728.00
2018-03-22T07:58:07.533Z,11456.00
2018-03-22T07:59:07.499Z,11416.00
2018-03-22T08:00:07.432Z,11172.00
2018-03-22T08:01:07.383Z,10772.00
2018-03-22T08:02:07.333Z,10728.00
2018-03-22T08:03:07.297Z,11276.00
2018-03-22T08:04:07.238Z,11684.00
2018-03-22T08:05:07.461Z,12088.00
2018-03-22T08:06:07.158Z,12028.00
2018-03-22T08:07:07.137Z,11500.00
2018-03-22T08:08:07.082Z,11100.00
2018-03-22T08:09:06.991Z,11328.00
2018-03-22T08:10:06.951Z,11708.00
2018-03-22T08:11:06.886Z,11252.00
2018-03-22T08:12:06.835Z,10896.00
2018-03-22T08:13:06.798Z,10676.00
2018-03-22T08:14:06.813Z,10648.00
2018-03-22T08:15:06.722Z,10540.00
2018-03-22T08:16:06.689Z,10512.00
2018-03-22T08:17:06.656Z,10860.00
2018-03-22T08:18:06.580Z,11184.00
2018-03-22T08:19:06.508Z,11588.00
2018-03-22T08:20:06.470Z,11148.00
2018-03-22T08:21:06.391Z,11064.00
2018-03-22T08:22:06.341Z,11032.00
2018-03-22T08:23:06.292Z,11044.00
2018-03-22T08:24:06.251Z,11500.00
2018-03-22T08:25:06.197Z,12036.00
2018-03-22T08:26:06.147Z,12912.00
2018-03-22T08:27:06.096Z,13488.00
2018-03-22T08:28:06.056Z,13788.00
2018-03-22T08:29:05.994Z,14000.00
2018-03-22T08:30:05.946Z,13940.00
2018-03-22T08:31:05.911Z,13112.00
2018-03-22T08:32:05.883Z,13192.00
2018-03-22T08:33:05.802Z,13848.00
2018-03-22T08:34:05.797Z,13980.00
2018-03-22T08:35:05.774Z,14236.00
2018-03-22T08:36:05.706Z,14412.00
2018-03-22T08:37:05.609Z,14296.00
2018-03-22T08:38:05.578Z,14304.00
2018-03-22T08:39:05.569Z,14244.00
2018-03-22T08:40:05.464Z,14040.00
2018-03-22T08:41:05.414Z,13872.00
2018-03-22T08:42:05.411Z,13804.00
2018-03-22T08:43:05.304Z,14472.00
2018-03-22T08:44:05.319Z,14688.00
2018-03-22T08:45:05.210Z,14792.00
2018-03-22T08:46:05.234Z,14152.00
2018-03-22T08:47:05.131Z,14572.00
2018-03-22T08:48:05.134Z,15420.00
2018-03-22T08:49:05.094Z,15188.00
2018-03-22T08:50:04.969Z,14992.00
2018-03-22T08:51:04.926Z,14872.00
2018-03-22T08:52:04.882Z,14940.00
2018-03-22T08:53:04.826Z,15356.00
2018-03-22T08:54:04.783Z,14976.00
2018-03-22T08:55:04.744Z,14700.00
2018-03-22T08:56:04.661Z,15016.00
2018-03-22T08:57:04.650Z,14616.00
2018-03-22T08:58:04.570Z,14080.00
2018-03-22T08:59:04.550Z,14360.00
2018-03-22T09:00:04.489Z,14528.00
2018-03-22T09:01:04.459Z,14076.00
2018-03-22T09:02:04.385Z,14036.00
2018-03-22T09:03:04.349Z,13996.00
2018-03-22T09:04:04.304Z,14024.00
2018-03-22T09:05:04.237Z,14096.00
2018-03-22T09:06:04.185Z,14340.00
2018-03-22T09:07:04.182Z,14412.00
2018-03-22T09:08:04.152Z,14492.00
2018-03-22T09:09:04.077Z,14760.00
2018-03-22T09:10:04.003Z,15100.00
2018-03-22T09:11:03.946Z,15092.00
2018-03-22T09:12:03.964Z,14976.00
2018-03-22T09:13:03.875Z,14460.00
2018-03-22T09:14:03.807Z,14532.00
2018-03-22T09:15:03.806Z,14844.00
2018-03-22T09:16:03.774Z,14996.00
2018-03-22T09:17:03.671Z,15256.00
2018-03-22T09:19:46.357Z,16340.00
